METAR Data

Data at: 2136 UTC 01 Dec 2021

METAR for:KFMH (Otis ANGB, MA, US)
Text:KFMH 012050Z 22004KT 10SM CLR 05/M02 A3012
Temperature: 5.0°C ( 41°F)
Dewpoint: -2.0°C ( 28°F) [RH = 60%]
Pressure (altimeter):30.12 inches Hg (1020.1 mb)
Winds:from the SW (220 degrees) at 5 MPH (4 knots; 2.1 m/s)
Visibility:10 or more sm (16+ km)
Ceiling:at least 12,000 feet AGL
Clouds:sky clear below 12,000 feet AGL